Gulf — V2BB5 — position and weather

sailwx.info

Track history (hours):
 
Tides and Currents Weather Stations Pressure Air Temp Water Temp Dewpoint Dewpoint Depression Visibility Wind Speed Wind Dir Waves Ship Positions

Gulf

Last reported at 2014-Dec-28 12:12 UTC. Time now 2015-Jan-28 06:40 UTC.
Position N 35°60' E 025°41'.
Warning: this ship's position is 30 days out of date.

Length 96 m; draft 5.7 m.

Type: Cargo ship. MMSI: 304320000.

Date/timePositionNaut miles runAvg speedWind from/ knotsBaromVisibWave heightAir tempDewpointWater temp
2014-Dec-28 12:12N 35°60' E 025°41'5 7.7
2014-Dec-28 11:33N 36°03' E 025°37'8 7.7
2014-Dec-28 10:33N 36°08' E 025°30'7 7.5
2014-Dec-28 09:34N 36°14' E 025°23'8 7.9
2014-Dec-28 08:33N 36°19' E 025°16'8 7.6
2014-Dec-28 07:34N 36°24' E 025°09'8 7.7
2014-Dec-28 06:33N 36°29' E 025°01'8 8.1
2014-Dec-28 05:34N 36°33' E 024°53'7 7.4
2014-Dec-28 04:33N 36°39' E 024°47'8 7.8
2014-Dec-28 03:34N 36°46' E 024°43'8 7.7
2014-Dec-28 02:33N 36°52' E 024°38'8 8.2
2014-Dec-28 01:33N 36°59' E 024°32'8 8.1
2014-Dec-28 00:31N 37°06' E 024°25'8 8.1
2014-Dec-27 23:33N 37°11' E 024°18'8 8.1
2014-Dec-27 22:31N 37°18' E 024°11'34 8.5
2014-Dec-27 18:28N 37°42' E 023°41'8 8.7
2014-Dec-27 17:33N 37°49' E 023°37'8 8.5
2014-Dec-27 16:33N 37°51' E 023°26'  
2014-Dec-21 15:33N 37°51' E 023°20'10 9.7
2014-Dec-21 14:33N 37°50' E 023°33'8 7.7
2014-Dec-21 13:34N 37°47' E 023°42'9 9.1
2014-Dec-21 12:33N 37°39' E 023°49'18 8.9
2014-Dec-21 10:32N 37°40' E 024°11'21 9.7
2014-Dec-21 08:25N 37°54' E 024°31'  
Track history (hours):
 
Tides and Currents Weather Stations Pressure Air Temp Water Temp Dewpoint Dewpoint Depression Visibility Wind Speed Wind Dir Waves Ship Positions

Gulf

Last reported at 2014-Dec-28 12:12 UTC. Time now 2015-Jan-28 06:40 UTC.
Position N 35°60' E 025°41'.
Warning: this ship's position is 30 days out of date.

Length 96 m; draft 5.7 m.

Type: Cargo ship. MMSI: 304320000.

Date/timePositionNaut miles runAvg speedWind from/ knotsBaromVisibWave heightAir tempDewpointWater temp
2014-Dec-28 12:12N 35°60' E 025°41'5 7.7
2014-Dec-28 11:33N 36°03' E 025°37'8 7.7
2014-Dec-28 10:33N 36°08' E 025°30'7 7.5
2014-Dec-28 09:34N 36°14' E 025°23'8 7.9
2014-Dec-28 08:33N 36°19' E 025°16'8 7.6
2014-Dec-28 07:34N 36°24' E 025°09'8 7.7
2014-Dec-28 06:33N 36°29' E 025°01'8 8.1
2014-Dec-28 05:34N 36°33' E 024°53'7 7.4
2014-Dec-28 04:33N 36°39' E 024°47'8 7.8
2014-Dec-28 03:34N 36°46' E 024°43'8 7.7
2014-Dec-28 02:33N 36°52' E 024°38'8 8.2
2014-Dec-28 01:33N 36°59' E 024°32'8 8.1
2014-Dec-28 00:31N 37°06' E 024°25'8 8.1
2014-Dec-27 23:33N 37°11' E 024°18'8 8.1
2014-Dec-27 22:31N 37°18' E 024°11'34 8.5
2014-Dec-27 18:28N 37°42' E 023°41'8 8.7
2014-Dec-27 17:33N 37°49' E 023°37'8 8.5
2014-Dec-27 16:33N 37°51' E 023°26'  
2014-Dec-21 15:33N 37°51' E 023°20'10 9.7
2014-Dec-21 14:33N 37°50' E 023°33'8 7.7
2014-Dec-21 13:34N 37°47' E 023°42'9 9.1
2014-Dec-21 12:33N 37°39' E 023°49'18 8.9
2014-Dec-21 10:32N 37°40' E 024°11'21 9.7
2014-Dec-21 08:25N 37°54' E 024°31'  

Dump ship's entire track history